createdAt,value
2022-10-20T00:01:17.076Z,1.58
2022-10-20T00:03:45.465Z,1.65
2022-10-20T00:06:20.684Z,1.90
2022-10-20T00:08:48.671Z,1.55
2022-10-20T00:11:18.716Z,1.30
2022-10-20T00:13:48.013Z,1.50
2022-10-20T00:16:15.791Z,1.77
2022-10-20T00:18:43.915Z,1.38
2022-10-20T00:21:15.306Z,2.08
2022-10-20T00:23:43.271Z,1.70
2022-10-20T00:26:16.813Z,1.60
2022-10-20T00:28:45.031Z,1.40
2022-10-20T00:31:13.186Z,1.10
2022-10-20T00:33:41.050Z,1.55
2022-10-20T00:36:11.302Z,1.48
2022-10-20T00:38:38.935Z,1.73
2022-10-20T00:41:06.896Z,1.70
2022-10-20T00:43:47.114Z,1.60
2022-10-20T00:46:18.096Z,2.00
2022-10-20T00:48:50.254Z,1.40
2022-10-20T00:51:22.102Z,1.42
2022-10-20T00:53:53.195Z,1.35
2022-10-20T00:56:21.463Z,1.20
2022-10-20T00:58:50.020Z,1.85
2022-10-20T01:01:18.496Z,2.30
2022-10-20T01:03:49.061Z,1.77
2022-10-20T01:06:19.030Z,2.00
2022-10-20T01:08:46.875Z,1.40
2022-10-20T01:11:28.108Z,1.95
2022-10-20T01:14:01.590Z,1.90
2022-10-20T01:16:57.928Z,1.58
2022-10-20T01:19:31.217Z,1.98
2022-10-20T01:22:19.840Z,1.80
2022-10-20T01:25:16.456Z,1.73
2022-10-20T01:27:51.074Z,1.98
2022-10-20T01:30:22.076Z,1.88
2022-10-20T01:32:55.272Z,1.45
2022-10-20T01:35:25.840Z,1.60
2022-10-20T01:38:20.285Z,1.85
2022-10-20T01:41:19.064Z,1.52
2022-10-20T01:43:48.477Z,1.52
2022-10-20T01:46:17.887Z,1.65
2022-10-20T01:48:47.327Z,1.92
2022-10-20T01:51:14.797Z,1.83
2022-10-20T01:53:42.204Z,2.13
2022-10-20T01:56:27.282Z,1.75
2022-10-20T01:59:00.771Z,1.38
2022-10-20T02:01:57.838Z,1.23
2022-10-20T02:04:38.211Z,1.65
2022-10-20T02:07:16.185Z,1.40
2022-10-20T02:12:30.668Z,1.30
2022-10-20T02:14:59.738Z,1.73
2022-10-20T02:17:29.053Z,2.30
2022-10-20T02:19:58.264Z,1.73
2022-10-20T02:22:27.738Z,1.75
2022-10-20T02:24:55.241Z,1.75
2022-10-20T02:27:30.539Z,1.83
2022-10-20T02:30:02.617Z,2.20
2022-10-20T02:32:31.977Z,1.60
2022-10-20T02:35:03.494Z,1.63
2022-10-20T02:37:34.563Z,2.05
2022-10-20T02:40:02.921Z,1.88
2022-10-20T02:42:30.364Z,2.10
2022-10-20T02:44:57.803Z,1.98
2022-10-20T02:47:25.283Z,1.70
2022-10-20T02:49:52.718Z,1.75
2022-10-20T02:52:20.185Z,1.38
2022-10-20T02:54:48.250Z,2.20
2022-10-20T02:57:15.848Z,1.77
2022-10-20T02:59:43.284Z,2.10
2022-10-20T03:02:10.726Z,2.33
2022-10-20T03:04:38.231Z,1.95
2022-10-20T03:07:05.849Z,1.77
2022-10-20T03:09:33.349Z,2.00
2022-10-20T03:12:00.856Z,2.30
2022-10-20T03:14:28.317Z,2.20
2022-10-20T03:16:55.773Z,1.77
2022-10-20T03:19:23.314Z,2.60
2022-10-20T03:21:50.801Z,2.65
2022-10-20T03:24:18.381Z,2.17
2022-10-20T03:26:45.816Z,1.70
2022-10-20T03:29:13.299Z,1.73
2022-10-20T03:31:41.065Z,1.88
2022-10-20T03:34:08.771Z,2.28
2022-10-20T03:36:36.253Z,2.10
2022-10-20T03:39:03.845Z,2.63
2022-10-20T03:41:31.306Z,1.60
2022-10-20T03:43:58.780Z,2.78
2022-10-20T03:46:26.332Z,2.10
2022-10-20T03:48:53.824Z,1.50
2022-10-20T03:51:21.448Z,1.80
2022-10-20T03:53:49.009Z,1.60
2022-10-20T03:56:18.644Z,2.22
2022-10-20T03:58:46.823Z,2.50
2022-10-20T04:01:20.035Z,2.30
2022-10-20T04:03:47.611Z,2.08
2022-10-20T04:06:15.960Z,1.90
2022-10-20T04:08:43.497Z,2.25
2022-10-20T04:11:11.001Z,1.60
2022-10-20T04:13:38.735Z,1.77
2022-10-20T04:16:06.499Z,2.30
2022-10-20T04:18:33.996Z,1.95
2022-10-20T04:21:01.414Z,1.85
2022-10-20T04:23:28.881Z,2.25
2022-10-20T04:25:56.311Z,1.63
2022-10-20T04:28:23.871Z,2.00
2022-10-20T04:30:51.327Z,1.42
2022-10-20T04:33:18.796Z,2.03
2022-10-20T04:35:46.300Z,1.50
2022-10-20T04:38:13.828Z,1.83
2022-10-20T04:40:41.360Z,2.33
2022-10-20T04:43:08.842Z,2.40
2022-10-20T04:45:36.922Z,1.85
2022-10-20T04:48:05.657Z,1.80
2022-10-20T04:50:33.088Z,2.10
2022-10-20T04:53:08.297Z,1.73
2022-10-20T04:55:37.388Z,2.38
2022-10-20T04:58:04.890Z,1.92
2022-10-20T05:00:32.412Z,1.77
2022-10-20T05:02:59.872Z,2.47
2022-10-20T05:05:27.441Z,1.83
2022-10-20T05:07:54.912Z,2.55
2022-10-20T05:10:22.417Z,2.08
2022-10-20T05:12:49.863Z,1.88
2022-10-20T05:15:17.402Z,1.92
2022-10-20T05:17:44.801Z,2.05
2022-10-20T05:20:12.288Z,2.25
2022-10-20T05:22:39.940Z,2.50
2022-10-20T05:25:31.221Z,2.00
2022-10-20T05:27:55.359Z,2.13
2022-10-20T05:30:22.757Z,1.98
2022-10-20T05:32:50.232Z,2.40
2022-10-20T05:35:17.685Z,2.80
2022-10-20T05:37:45.153Z,2.33
2022-10-20T05:40:12.993Z,2.60
2022-10-20T05:42:40.681Z,2.22
2022-10-20T05:45:09.081Z,2.78
2022-10-20T05:47:36.649Z,2.25
2022-10-20T05:50:04.564Z,2.35
2022-10-20T05:52:32.038Z,2.80
2022-10-20T05:54:59.638Z,1.70
2022-10-20T05:57:27.154Z,2.85
2022-10-20T05:59:54.555Z,2.60
2022-10-20T06:02:22.319Z,2.40
2022-10-20T06:04:49.774Z,2.65
2022-10-20T06:07:17.335Z,2.88
2022-10-20T06:09:44.800Z,3.15
2022-10-20T06:12:12.284Z,2.78
2022-10-20T06:14:39.728Z,2.10
2022-10-20T06:17:07.169Z,2.95
2022-10-20T06:19:34.660Z,2.67
2022-10-20T06:22:05.537Z,2.63
2022-10-20T06:24:34.680Z,1.88
2022-10-20T06:27:02.246Z,2.60
2022-10-20T06:29:29.726Z,2.15
2022-10-20T06:31:57.230Z,2.45
2022-10-20T06:34:26.076Z,2.20
2022-10-20T06:36:53.631Z,2.53
2022-10-20T06:39:23.552Z,2.40
2022-10-20T06:41:53.612Z,3.75
2022-10-20T06:44:23.704Z,3.22
2022-10-20T06:46:54.812Z,2.10
2022-10-20T06:49:22.655Z,2.20
2022-10-20T06:51:50.416Z,3.08
2022-10-20T06:54:18.120Z,2.17
2022-10-20T06:56:45.646Z,2.33
2022-10-20T06:59:13.145Z,1.80
2022-10-20T07:01:40.806Z,3.25
2022-10-20T07:04:14.834Z,2.90
2022-10-20T07:06:44.556Z,2.38
2022-10-20T07:09:18.524Z,3.38
2022-10-20T07:11:50.184Z,2.85
2022-10-20T07:14:17.642Z,2.55
2022-10-20T07:16:45.155Z,2.65
2022-10-20T07:19:12.754Z,2.35
2022-10-20T07:21:42.958Z,1.90
2022-10-20T07:24:13.251Z,2.30
2022-10-20T07:26:41.992Z,2.70
2022-10-20T07:29:10.212Z,2.67
2022-10-20T07:31:44.002Z,3.42
2022-10-20T07:34:25.035Z,2.70
2022-10-20T07:36:53.993Z,3.45
2022-10-20T07:39:21.768Z,3.17
2022-10-20T07:41:49.527Z,2.50
2022-10-20T07:44:17.693Z,3.47
2022-10-20T07:46:45.577Z,3.05
2022-10-20T07:52:00.853Z,2.97
2022-10-20T07:54:28.310Z,3.45
2022-10-20T07:56:55.794Z,3.70
2022-10-20T07:59:24.479Z,4.18
2022-10-20T08:01:55.989Z,2.95
2022-10-20T08:04:26.336Z,3.90
2022-10-20T08:06:53.986Z,3.45
2022-10-20T08:09:21.607Z,3.17
2022-10-20T08:11:52.765Z,2.60
2022-10-20T08:14:27.208Z,3.37
2022-10-20T08:17:01.397Z,3.47
2022-10-20T08:22:10.733Z,3.28
2022-10-20T08:24:38.192Z,3.70
2022-10-20T08:27:05.689Z,3.20
2022-10-20T08:29:33.377Z,3.25
2022-10-20T08:32:00.979Z,2.50
2022-10-20T08:34:28.371Z,3.33
2022-10-20T08:36:55.834Z,3.10
2022-10-20T08:39:23.894Z,2.65
2022-10-20T08:42:08.117Z,2.58
2022-10-20T08:44:38.237Z,2.30
2022-10-20T08:47:16.462Z,3.13
2022-10-20T08:49:46.023Z,3.20
2022-10-20T08:52:16.871Z,2.85
2022-10-20T08:54:44.549Z,3.28
2022-10-20T08:57:28.595Z,3.08
2022-10-20T09:00:05.730Z,4.10
2022-10-20T09:02:35.930Z,3.72
2022-10-20T09:05:06.466Z,3.92
2022-10-20T09:07:39.464Z,3.45
2022-10-20T09:10:29.647Z,3.25
2022-10-20T09:12:58.430Z,3.83
2022-10-20T09:15:27.227Z,3.00
2022-10-20T09:17:56.930Z,3.78
2022-10-20T09:20:27.292Z,4.20
2022-10-20T09:22:54.840Z,2.90
2022-10-20T09:25:25.328Z,3.55
2022-10-20T09:27:53.741Z,2.60
2022-10-20T09:30:36.126Z,3.75
2022-10-20T09:33:28.794Z,3.20
2022-10-20T09:36:05.735Z,3.88
2022-10-20T09:38:35.230Z,2.83
2022-10-20T09:41:23.312Z,3.50
2022-10-20T09:43:57.242Z,4.05
2022-10-20T09:46:35.159Z,2.58
2022-10-20T09:49:22.712Z,3.38
2022-10-20T09:54:26.343Z,4.15
2022-10-20T09:56:54.257Z,2.78
2022-10-20T09:59:31.916Z,2.67
2022-10-20T10:02:01.774Z,3.45
2022-10-20T10:04:35.448Z,2.70
2022-10-20T10:07:04.913Z,2.30
2022-10-20T10:09:36.006Z,3.10
2022-10-20T10:12:12.679Z,3.08
2022-10-20T10:14:54.618Z,3.30
2022-10-20T10:17:39.249Z,2.70
2022-10-20T10:20:12.783Z,2.70
2022-10-20T10:22:41.205Z,3.53
2022-10-20T10:25:18.304Z,3.50
2022-10-20T10:31:09.951Z,2.70
2022-10-20T10:33:37.378Z,2.55
2022-10-20T10:36:26.756Z,3.53
2022-10-20T10:38:54.564Z,3.45
2022-10-20T10:41:51.338Z,3.90
2022-10-20T10:44:28.085Z,2.83
2022-10-20T10:47:14.811Z,2.88
2022-10-20T10:50:14.556Z,3.03
2022-10-20T10:53:06.898Z,3.10
2022-10-20T10:55:48.985Z,3.00
2022-10-20T10:58:30.929Z,3.17
2022-10-20T11:01:12.581Z,3.50
2022-10-20T11:04:03.866Z,3.13
2022-10-20T11:06:40.543Z,4.57
2022-10-20T11:09:31.943Z,4.07
2022-10-20T11:12:12.466Z,3.90
2022-10-20T11:15:06.388Z,3.65
2022-10-20T11:17:54.331Z,3.17
2022-10-20T11:20:50.711Z,3.17
2022-10-20T11:23:44.891Z,4.07
2022-10-20T11:26:12.286Z,3.05
2022-10-20T11:28:44.852Z,3.55
2022-10-20T11:31:54.779Z,4.07
2022-10-20T11:34:36.062Z,3.47
2022-10-20T11:37:31.735Z,4.05
2022-10-20T11:40:23.918Z,3.10
2022-10-20T11:43:23.643Z,3.03
2022-10-20T11:45:54.615Z,3.10
2022-10-20T11:48:42.305Z,3.15
2022-10-20T11:51:28.388Z,3.42
2022-10-20T11:54:04.597Z,2.78
2022-10-20T11:57:06.876Z,3.08
2022-10-20T11:59:52.248Z,3.90
2022-10-20T12:02:53.138Z,3.85
2022-10-20T12:05:41.688Z,4.22
2022-10-20T12:08:30.781Z,3.08
2022-10-20T12:11:04.455Z,3.22
2022-10-20T12:13:47.581Z,3.28
2022-10-20T12:16:58.303Z,2.90
2022-10-20T12:19:34.269Z,3.05
2022-10-20T12:22:14.048Z,3.65
2022-10-20T12:25:01.432Z,2.90
2022-10-20T12:27:29.655Z,3.38
2022-10-20T12:30:00.105Z,3.65
2022-10-20T12:33:09.219Z,3.60
2022-10-20T12:35:58.637Z,2.92
2022-10-20T12:38:27.443Z,3.10
2022-10-20T12:41:00.286Z,3.47
2022-10-20T12:43:49.424Z,2.97
2022-10-20T12:46:21.934Z,3.80
2022-10-20T12:48:56.762Z,3.72
2022-10-20T12:51:47.634Z,3.00
2022-10-20T12:54:25.501Z,3.70
2022-10-20T12:56:57.972Z,2.75
2022-10-20T12:59:31.299Z,3.20
2022-10-20T13:02:11.000Z,3.92
2022-10-20T13:05:00.373Z,3.47
2022-10-20T13:07:46.367Z,4.13
2022-10-20T13:10:31.496Z,3.80
2022-10-20T13:13:01.909Z,3.22
2022-10-20T13:15:37.946Z,3.53
2022-10-20T13:18:43.465Z,4.05
2022-10-20T13:21:33.250Z,3.17
2022-10-20T13:24:16.116Z,2.60
2022-10-20T13:26:43.571Z,4.32
2022-10-20T13:29:18.424Z,3.78
2022-10-20T13:32:16.330Z,3.08
2022-10-20T13:35:07.317Z,3.03
2022-10-20T13:37:57.004Z,3.40
2022-10-20T13:40:56.996Z,3.22
2022-10-20T13:43:29.459Z,3.65
2022-10-20T13:46:08.878Z,3.70
2022-10-20T13:48:55.199Z,3.10
2022-10-20T13:51:32.433Z,3.55
2022-10-20T13:54:06.346Z,3.22
2022-10-20T13:56:38.259Z,2.85
2022-10-20T14:02:03.846Z,3.25
2022-10-20T14:04:34.107Z,3.72
2022-10-20T14:07:13.265Z,3.13
2022-10-20T14:09:45.371Z,4.05
2022-10-20T14:12:25.316Z,3.20
2022-10-20T14:15:01.454Z,3.38
2022-10-20T14:17:29.483Z,2.55
2022-10-20T14:20:21.425Z,3.33
2022-10-20T14:22:49.592Z,3.40
2022-10-20T14:25:17.671Z,3.20
2022-10-20T14:27:45.388Z,3.38
2022-10-20T14:30:16.358Z,3.85
2022-10-20T14:32:45.311Z,4.00
2022-10-20T14:35:24.894Z,3.47
2022-10-20T14:37:59.793Z,3.05
2022-10-20T14:40:34.202Z,3.40
2022-10-20T14:43:15.894Z,3.58
2022-10-20T14:45:56.672Z,3.20
2022-10-20T14:48:28.774Z,3.50
2022-10-20T14:50:56.329Z,2.35
2022-10-20T14:53:27.284Z,3.05
2022-10-20T14:55:56.386Z,2.55
2022-10-20T14:58:37.033Z,3.00
2022-10-20T15:01:23.078Z,2.80
2022-10-20T15:04:30.002Z,3.28
2022-10-20T15:07:15.587Z,4.65
2022-10-20T15:09:46.273Z,3.15
2022-10-20T15:12:38.442Z,2.90
2022-10-20T15:15:12.264Z,3.38
2022-10-20T15:17:48.345Z,2.85
2022-10-20T15:23:13.503Z,3.83
2022-10-20T15:25:43.637Z,3.67
2022-10-20T15:28:25.976Z,3.22
2022-10-20T15:30:53.719Z,2.35
2022-10-20T15:33:21.421Z,3.92
2022-10-20T15:35:48.960Z,3.03
2022-10-20T15:38:16.531Z,3.47
2022-10-20T15:40:45.390Z,2.70
2022-10-20T15:43:14.768Z,2.42
2022-10-20T15:45:46.225Z,2.60
2022-10-20T15:48:13.763Z,3.13
2022-10-20T15:50:41.745Z,4.03
2022-10-20T15:53:12.049Z,2.72
2022-10-20T15:55:42.559Z,4.57
2022-10-20T15:58:10.073Z,3.45
2022-10-20T16:00:37.805Z,3.30
2022-10-20T16:03:06.453Z,3.20
2022-10-20T16:05:34.229Z,3.78
2022-10-20T16:08:02.517Z,3.42
2022-10-20T16:10:30.096Z,3.90
2022-10-20T16:12:58.126Z,4.00
2022-10-20T16:15:30.299Z,3.58
2022-10-20T16:17:59.291Z,3.58
2022-10-20T16:20:27.075Z,2.80
2022-10-20T16:22:54.611Z,2.78
2022-10-20T16:25:22.076Z,2.30
2022-10-20T16:27:49.551Z,3.40
2022-10-20T16:30:17.209Z,3.22
2022-10-20T16:32:44.689Z,3.53
2022-10-20T16:35:12.240Z,3.78
2022-10-20T16:37:39.884Z,2.95
2022-10-20T16:40:07.924Z,3.40
2022-10-20T16:42:35.440Z,3.28
2022-10-20T16:45:03.001Z,3.00
2022-10-20T16:47:30.575Z,3.60
2022-10-20T16:49:58.059Z,4.72
2022-10-20T16:52:25.623Z,4.43
2022-10-20T16:54:53.059Z,3.13
2022-10-20T16:57:20.694Z,4.38
2022-10-20T16:59:50.880Z,4.43
2022-10-20T17:02:19.236Z,3.47
2022-10-20T17:04:50.161Z,3.30
2022-10-20T17:07:17.993Z,3.13
2022-10-20T17:09:45.778Z,3.67
2022-10-20T17:12:13.249Z,3.40
2022-10-20T17:14:41.018Z,5.20
2022-10-20T17:17:08.797Z,3.97
2022-10-20T17:19:36.227Z,4.65
2022-10-20T17:22:03.802Z,3.83
2022-10-20T17:24:31.316Z,3.40
2022-10-20T17:26:58.839Z,3.55
2022-10-20T17:29:26.460Z,4.60
2022-10-20T17:31:54.061Z,5.32
2022-10-20T17:34:22.956Z,4.10
2022-10-20T17:36:50.613Z,4.07
2022-10-20T17:39:18.067Z,4.47
2022-10-20T17:41:46.911Z,3.80
2022-10-20T17:44:14.359Z,3.63
2022-10-20T17:46:43.347Z,3.90
2022-10-20T17:49:10.815Z,4.22
2022-10-20T17:51:38.478Z,3.55
2022-10-20T17:54:06.151Z,3.30
2022-10-20T17:56:36.084Z,4.10
2022-10-20T17:59:05.627Z,3.72
2022-10-20T18:01:35.910Z,3.25
2022-10-20T18:04:09.573Z,3.47
2022-10-20T18:06:38.258Z,3.95
2022-10-20T18:09:10.819Z,3.35
2022-10-20T18:11:40.197Z,3.17
2022-10-20T18:14:08.100Z,3.90
2022-10-20T18:16:38.043Z,3.55
2022-10-20T18:19:07.292Z,3.47
2022-10-20T18:21:34.770Z,4.07
2022-10-20T18:24:05.261Z,3.85
2022-10-20T18:26:35.134Z,3.60
2022-10-20T18:29:04.578Z,2.90
2022-10-20T18:31:34.194Z,3.35
2022-10-20T18:34:06.851Z,3.35
2022-10-20T18:36:39.114Z,3.53
2022-10-20T18:39:10.731Z,5.03
2022-10-20T18:41:40.301Z,3.63
2022-10-20T18:44:14.323Z,4.50
2022-10-20T18:46:42.062Z,3.50
2022-10-20T18:49:13.826Z,3.70
2022-10-20T18:51:41.518Z,3.92
2022-10-20T18:54:09.571Z,2.60
2022-10-20T18:56:37.482Z,3.80
2022-10-20T18:59:09.804Z,3.92
2022-10-20T19:01:38.948Z,3.20
2022-10-20T19:04:08.457Z,3.30
2022-10-20T19:06:44.107Z,3.92
2022-10-20T19:09:19.921Z,3.13
2022-10-20T19:14:21.528Z,5.05
2022-10-20T19:16:49.860Z,3.65
2022-10-20T19:19:17.494Z,3.78
2022-10-20T19:21:45.165Z,3.40
2022-10-20T19:24:23.844Z,3.67
2022-10-20T19:27:24.427Z,3.55
2022-10-20T19:29:42.384Z,4.10
2022-10-20T19:32:11.417Z,4.45
2022-10-20T19:34:40.222Z,3.75
2022-10-20T19:37:09.107Z,3.45
2022-10-20T19:39:39.624Z,3.75
2022-10-20T19:42:08.075Z,4.15
2022-10-20T19:44:35.733Z,3.88
2022-10-20T19:47:05.164Z,3.53
2022-10-20T19:49:33.286Z,3.85
2022-10-20T19:52:02.008Z,4.63
2022-10-20T19:54:29.551Z,4.15
2022-10-20T19:56:57.101Z,4.78
2022-10-20T19:59:25.573Z,4.68
2022-10-20T20:01:53.031Z,4.20
2022-10-20T20:04:21.103Z,3.72
2022-10-20T20:06:48.681Z,4.00
2022-10-20T20:09:16.544Z,4.15
2022-10-20T20:11:44.639Z,4.38
2022-10-20T20:14:17.596Z,4.50
2022-10-20T20:16:46.571Z,4.40
2022-10-20T20:19:15.843Z,4.35
2022-10-20T20:21:43.351Z,4.40
2022-10-20T20:24:12.746Z,3.88
2022-10-20T20:26:40.304Z,5.07
2022-10-20T20:29:07.896Z,4.93
2022-10-20T20:31:35.425Z,4.72
2022-10-20T20:34:03.199Z,4.50
2022-10-20T20:36:30.746Z,6.20
2022-10-20T20:38:59.746Z,3.67
2022-10-20T20:41:30.199Z,4.85
2022-10-20T20:43:57.955Z,4.03
2022-10-20T20:46:29.287Z,3.83
2022-10-20T20:48:59.295Z,3.25
2022-10-20T20:51:28.998Z,3.75
2022-10-20T20:53:56.568Z,4.68
2022-10-20T20:56:26.847Z,3.80
2022-10-20T20:58:55.635Z,3.70
2022-10-20T21:01:24.264Z,4.10
2022-10-20T21:04:00.264Z,4.45
2022-10-20T21:06:33.889Z,4.18
2022-10-20T21:09:10.591Z,4.10
2022-10-20T21:11:38.093Z,4.35
2022-10-20T21:14:05.512Z,4.93
2022-10-20T21:16:35.880Z,4.32
2022-10-20T21:19:06.408Z,4.22
2022-10-20T21:21:47.154Z,5.10
2022-10-20T21:24:14.728Z,3.95
2022-10-20T21:26:42.187Z,3.97
2022-10-20T21:29:10.484Z,3.08
2022-10-20T21:31:40.070Z,4.53
2022-10-20T21:34:07.586Z,4.40
2022-10-20T21:36:36.473Z,4.95
2022-10-20T21:39:06.538Z,4.63
2022-10-20T21:41:35.606Z,4.15
2022-10-20T21:44:06.291Z,4.18
2022-10-20T21:46:39.713Z,3.92
2022-10-20T21:49:11.173Z,3.70
2022-10-20T21:51:41.476Z,4.60
2022-10-20T21:54:16.028Z,4.65
2022-10-20T21:56:47.244Z,6.53
2022-10-20T21:59:22.551Z,4.45
2022-10-20T22:01:51.354Z,5.55
2022-10-20T22:04:20.536Z,6.88
2022-10-20T22:06:48.358Z,4.72
2022-10-20T22:09:16.608Z,4.95
2022-10-20T22:11:49.026Z,4.28
2022-10-20T22:14:16.703Z,4.78
2022-10-20T22:16:44.227Z,5.28
2022-10-20T22:19:21.392Z,5.40
2022-10-20T22:21:50.503Z,4.53
2022-10-20T22:24:19.224Z,4.80
2022-10-20T22:26:47.811Z,6.07
2022-10-20T22:29:15.264Z,4.95
2022-10-20T22:31:42.908Z,5.60
2022-10-20T22:34:11.218Z,4.38
2022-10-20T22:36:39.709Z,5.22
2022-10-20T22:39:08.537Z,4.80
2022-10-20T22:41:36.686Z,6.72
2022-10-20T22:44:04.742Z,4.57
2022-10-20T22:46:32.498Z,5.43
2022-10-20T22:48:59.901Z,5.88
2022-10-20T22:51:27.515Z,5.13
2022-10-20T22:53:54.930Z,4.95
2022-10-20T22:56:23.618Z,6.15
2022-10-20T22:58:53.288Z,5.80
2022-10-20T23:01:22.703Z,6.85
2022-10-20T23:03:50.833Z,5.28
2022-10-20T23:06:24.349Z,4.50
2022-10-20T23:08:55.418Z,6.22
2022-10-20T23:11:23.168Z,5.40
2022-10-20T23:13:51.246Z,6.25
2022-10-20T23:16:18.985Z,6.10
2022-10-20T23:18:47.328Z,6.95
2022-10-20T23:21:15.555Z,5.57
2022-10-20T23:23:43.376Z,5.43
2022-10-20T23:26:11.692Z,5.47
2022-10-20T23:28:39.338Z,6.57
2022-10-20T23:31:07.125Z,5.85
2022-10-20T23:33:35.271Z,4.82
2022-10-20T23:36:03.155Z,5.38
2022-10-20T23:38:30.920Z,4.75
2022-10-20T23:40:58.383Z,5.32
2022-10-20T23:43:25.891Z,6.95
2022-10-20T23:45:53.479Z,7.85
2022-10-20T23:48:21.002Z,4.82
2022-10-20T23:50:48.568Z,6.07
2022-10-20T23:53:16.071Z,6.15
2022-10-20T23:55:43.772Z,6.50
2022-10-20T23:58:11.654Z,5.50
